Time;durP1;ratioP1;P1;durP2;ratioP2;P2;SDS_P1;SDS_P2;PMS_P1;PMS_P2;Temp;Humidity;BMP_temperature;BMP_pressure;BME280_temperature;BME280_humidity;BME280_pressure;Samples;Min_cycle;Max_cycle;Signal;HPM_P1;HPM_P2
2021/07/15 00:00:54;;;;;;;33.60;15.40;;;;;;;16.53;83.62;101534.06;4984041;28;20062;-56
2021/07/15 00:03:23;;;;;;;30.92;13.32;;;;;;;16.54;83.73;101545.53;4986331;28;20049;-56
2021/07/15 00:05:49;;;;;;;30.48;14.10;;;;;;;16.56;83.63;101546.44;4992832;28;20055;-56
2021/07/15 00:08:18;;;;;;;35.80;13.63;;;;;;;16.55;83.54;101569.41;4987789;28;20125;-55
2021/07/15 00:10:52;;;;;;;31.65;13.82;;;;;;;16.53;83.72;101559.72;4986658;28;20030;-54
2021/07/15 00:13:18;;;;;;;36.70;14.98;;;;;;;16.49;83.80;101558.03;4987152;28;20153;-55
2021/07/15 00:15:47;;;;;;;30.23;13.82;;;;;;;16.50;83.87;101560.66;4985809;28;20042;-55
2021/07/15 00:18:13;;;;;;;33.78;14.40;;;;;;;16.50;83.71;101558.00;4983657;28;20054;-54
2021/07/15 00:20:43;;;;;;;30.95;13.98;;;;;;;16.52;83.59;101564.16;4986805;28;20046;-56
2021/07/15 00:23:09;;;;;;;;;;;;;;;16.51;83.55;101565.06;4984849;28;20553;-56
2021/07/15 00:25:35;;;;;;;30.42;13.68;;;;;;;16.47;83.83;101571.31;4993105;28;19945;-55
2021/07/15 00:28:00;;;;;;;29.83;13.07;;;;;;;16.46;84.12;101581.94;4994361;28;20157;-54
2021/07/15 00:30:26;;;;;;;30.23;12.52;;;;;;;16.43;84.48;101574.03;4996605;28;20685;-55
2021/07/15 00:32:51;;;;;;;32.22;14.07;;;;;;;16.41;84.12;101570.50;4990243;28;20499;-54
2021/07/15 00:35:16;;;;;;;29.33;12.90;;;;;;;16.46;83.99;101564.22;4991731;28;20034;-55
2021/07/15 00:37:43;;;;;;;28.67;13.25;;;;;;;16.46;83.94;101566.88;4985970;28;20041;-56
2021/07/15 00:40:11;;;;;;;28.90;12.45;;;;;;;16.53;83.35;101555.28;4988732;28;20046;-56
2021/07/15 00:42:37;;;;;;;29.38;15.50;;;;;;;16.53;83.38;101560.59;5013792;28;20415;-54
2021/07/15 00:45:05;;;;;;;28.65;14.15;;;;;;;16.49;83.75;101565.97;5010491;28;20026;-55
2021/07/15 00:47:31;;;;;;;29.92;13.50;;;;;;;16.47;83.89;101547.44;5004127;28;20080;-54
2021/07/15 00:49:57;;;;;;;28.50;13.73;;;;;;;16.45;83.76;101553.66;5015729;28;20436;-55
2021/07/15 00:52:23;;;;;;;27.48;12.90;;;;;;;16.48;83.88;101569.53;5013410;28;20047;-54
2021/07/15 00:54:49;;;;;;;28.90;13.23;;;;;;;16.48;83.76;101572.16;5012721;28;20116;-53
2021/07/15 00:57:14;;;;;;;24.50;13.20;;;;;;;16.47;83.74;101575.75;5012498;28;20034;-56
2021/07/15 00:59:40;;;;;;;31.65;14.93;;;;;;;16.47;83.79;101570.44;5009134;28;20054;-54
2021/07/15 01:02:05;;;;;;;32.53;14.73;;;;;;;16.44;83.94;101563.38;5008990;28;20061;-54
2021/07/15 01:04:31;;;;;;;27.98;14.20;;;;;;;16.45;83.89;101561.63;5009718;28;20516;-55
2021/07/15 01:06:56;;;;;;;28.20;14.32;;;;;;;16.43;84.08;101563.44;5010132;28;20026;-56
2021/07/15 01:09:23;;;;;;;31.15;13.27;;;;;;;16.50;83.65;101567.72;5005282;28;20030;-55
2021/07/15 01:11:52;;;;;;;33.50;14.38;;;;;;;16.50;83.40;101558.00;5009632;28;20057;-54
2021/07/15 01:14:27;;;;;;;31.55;15.13;;;;;;;16.44;83.84;101558.06;5014172;28;20022;-54
2021/07/15 01:16:59;;;;;;;33.95;15.63;;;;;;;16.42;83.92;101567.84;5005264;28;20102;-54
2021/07/15 01:19:37;;;;;;;32.03;14.55;;;;;;;16.44;83.84;101566.03;5007698;28;20030;-55
2021/07/15 01:22:08;;;;;;;34.20;15.05;;;;;;;16.43;84.02;101558.13;5010601;28;20058;-55
2021/07/15 01:25:11;;;;;;;30.58;13.60;;;;;;;16.45;83.87;101574.88;5005717;28;20026;-56
2021/07/15 01:27:52;;;;;;;30.33;14.25;;;;;;;16.45;83.86;101572.25;5010131;28;20158;-55
2021/07/15 01:30:25;;;;;;;33.70;14.13;;;;;;;16.43;84.11;101576.69;5011479;28;20081;-55
2021/07/15 01:33:02;;;;;;;27.02;14.18;;;;;;;16.39;84.01;101581.16;5004880;28;20031;-55
2021/07/15 01:35:42;;;;;;;34.10;13.50;;;;;;;16.41;84.06;101566.09;4992764;28;20084;-55
2021/07/15 01:38:08;;;;;;;26.50;13.65;;;;;;;16.43;83.66;101579.34;4999366;28;20038;-54
2021/07/15 01:40:40;;;;;;;29.60;13.07;;;;;;;16.43;83.67;101574.91;4994819;28;20046;-55
2021/07/15 01:43:10;;;;;;;31.17;13.02;;;;;;;16.45;83.83;101578.41;4982336;28;20094;-54
2021/07/15 01:45:38;;;;;;;29.90;14.32;;;;;;;16.39;83.76;101570.56;4975627;28;20046;-55
2021/07/15 01:48:04;;;;;;;27.08;12.40;;;;;;;16.34;84.17;101578.56;4979106;28;20115;-55
2021/07/15 01:50:30;;;;;;;35.28;12.60;;;;;;;16.33;84.27;101574.16;4978578;28;20037;-53
2021/07/15 01:52:56;;;;;;;27.67;13.13;;;;;;;16.36;83.87;101579.41;4979371;28;20139;-56
2021/07/15 01:55:22;;;;;;;31.50;12.70;;;;;;;16.35;84.08;101572.38;4982295;28;20414;-54
2021/07/15 01:57:49;;;;;;;23.00;11.18;;;;;;;16.39;83.88;101575.84;4973703;28;20122;-55
2021/07/15 02:00:15;;;;;;;31.73;13.20;;;;;;;16.32;84.05;101577.69;4972761;28;20031;-55
2021/07/15 02:02:43;;;;;;;25.27;11.80;;;;;;;16.30;83.97;101565.38;4968707;28;20035;-54
2021/07/15 02:05:10;;;;;;;24.17;11.50;;;;;;;16.28;84.23;101568.03;4977729;28;20070;-55
2021/07/15 02:07:39;;;;;;;26.80;12.85;;;;;;;16.29;84.25;101576.88;4982493;28;20042;-56
2021/07/15 02:10:09;;;;;;;28.80;13.65;;;;;;;16.21;84.70;101573.44;4973081;28;20031;-55
2021/07/15 02:12:36;;;;;;;26.75;12.25;;;;;;;16.23;84.52;101571.66;4968982;28;20035;-55
2021/07/15 02:15:02;;;;;;;24.08;12.55;;;;;;;16.23;84.81;101575.16;4978097;28;20027;-55
2021/07/15 02:17:28;;;;;;;25.85;11.77;;;;;;;16.23;84.52;101569.00;4983071;28;20030;-56
2021/07/15 02:19:56;;;;;;;22.42;13.23;;;;;;;16.23;84.47;101567.22;4978092;28;20059;-54
2021/07/15 02:22:22;;;;;;;35.53;13.75;;;;;;;16.23;84.64;101572.50;4973862;28;20054;-55
2021/07/15 02:24:49;;;;;;;25.50;12.98;;;;;;;16.21;84.83;101563.72;4975976;28;20030;-53
2021/07/15 02:27:16;;;;;;;33.35;14.52;;;;;;;16.21;84.59;101568.16;4978808;28;20043;-55
2021/07/15 02:29:41;;;;;;;34.65;13.80;;;;;;;16.22;84.55;101561.94;4978587;28;20046;-55
2021/07/15 02:32:11;;;;;;;25.77;12.15;;;;;;;16.24;84.65;101550.44;4976909;28;20487;-58
2021/07/15 02:34:36;;;;;;;;;;;;;;;16.23;84.60;101548.66;4971415;28;20027;-56
2021/07/15 02:37:02;;;;;;;30.75;13.93;;;;;;;16.23;84.79;101542.47;4972974;28;19924;-54
2021/07/15 02:39:28;;;;;;;37.75;14.80;;;;;;;16.23;84.79;101547.78;4984244;28;20030;-56
2021/07/15 02:41:53;;;;;;;33.60;15.45;;;;;;;16.12;84.98;101534.66;4996728;28;20039;-54
2021/07/15 02:44:19;;;;;;;35.72;16.50;;;;;;;16.09;85.60;101534.72;5005142;28;20045;-56
2021/07/15 02:46:44;;;;;;;33.22;13.73;;;;;;;16.14;85.44;101540.81;5001947;28;20031;-55
2021/07/15 02:49:10;;;;;;;31.55;15.15;;;;;;;16.20;84.88;101537.22;5002383;28;20057;-55
2021/07/15 02:51:35;;;;;;;33.47;14.27;;;;;;;16.24;84.77;101529.22;4991047;28;20037;-52
2021/07/15 02:54:02;;;;;;;38.40;14.98;;;;;;;16.23;84.83;101537.19;5001794;28;20027;-54
2021/07/15 02:57:05;;;;;;;29.65;14.00;;;;;;;16.22;84.69;101533.66;5007856;28;20029;-55
2021/07/15 02:59:57;;;;;;;32.55;14.15;;;;;;;16.18;84.54;101522.22;4946002;29;20087;-58
2021/07/15 03:02:27;;;;;;;34.85;13.68;;;;;;;16.20;84.14;101527.50;4946236;29;20082;-55
2021/07/15 03:05:00;;;;;;;36.50;14.05;;;;;;;16.18;84.38;101539.88;4946024;29;20042;-56
2021/07/15 03:07:29;;;;;;;34.05;13.38;;;;;;;16.17;84.34;101536.34;4930375;29;20039;-55
2021/07/15 03:09:55;;;;;;;22.58;12.35;;;;;;;16.12;84.77;101538.22;4946236;29;20074;-57
2021/07/15 03:12:23;;;;;;;26.63;12.32;;;;;;;16.17;84.48;101536.34;4945437;29;20192;-55
2021/07/15 03:14:52;;;;;;;32.22;13.68;;;;;;;16.18;84.54;101539.88;4946751;29;20032;-56
2021/07/15 03:17:24;;;;;;;28.87;13.60;;;;;;;16.18;84.58;101542.53;4942513;29;20044;-55
2021/07/15 03:19:52;;;;;;;26.80;13.00;;;;;;;16.19;84.50;101544.28;4946378;28;20071;-57
2021/07/15 03:22:19;;;;;;;30.60;13.35;;;;;;;16.16;84.50;101541.69;4946610;29;20086;-56
2021/07/15 03:24:53;;;;;;;30.35;12.82;;;;;;;16.16;84.64;101536.38;4945627;29;20110;-55
2021/07/15 03:27:21;;;;;;;28.08;11.88;;;;;;;16.18;84.29;101532.81;4945177;29;20138;-55
2021/07/15 03:29:48;;;;;;;37.22;12.18;;;;;;;16.22;83.46;101541.63;4945862;29;20031;-54
2021/07/15 03:32:14;;;;;;;31.77;11.50;;;;;;;16.21;83.84;101541.63;4946112;28;20044;-57
2021/07/15 03:34:41;;;;;;;25.02;12.15;;;;;;;16.21;83.29;101536.31;4997773;28;20031;-56
2021/07/15 03:37:07;;;;;;;28.05;11.88;;;;;;;16.21;83.34;101544.28;5002639;28;20482;-55
2021/07/15 03:39:34;;;;;;;30.50;11.48;;;;;;;16.22;83.16;101546.91;5006117;28;20129;-58
2021/07/15 03:41:59;;;;;;;30.70;10.98;;;;;;;16.25;83.01;101532.72;4998696;28;20050;-55
2021/07/15 03:44:26;;;;;;;25.00;10.75;;;;;;;16.28;82.66;101540.66;4994601;28;20030;-52
2021/07/15 03:46:52;;;;;;;26.83;10.50;;;;;;;16.29;82.50;101545.03;4985692;28;20911;-57
2021/07/15 03:49:21;;;;;;;31.25;10.45;;;;;;;16.32;82.63;101552.97;4992792;28;20027;-56
2021/07/15 03:51:47;;;;;;;34.58;11.70;;;;;;;16.29;82.70;101553.88;4997841;28;20034;-56
2021/07/15 03:54:14;;;;;;;33.90;11.48;;;;;;;16.35;82.30;101560.84;4993045;28;20065;-56
2021/07/15 03:56:42;;;;;;;33.35;11.23;;;;;;;16.35;82.39;101559.09;4997984;28;20038;-54
2021/07/15 03:59:08;;;;;;;27.30;11.27;;;;;;;16.42;82.12;101559.00;4995314;28;20035;-57
2021/07/15 04:01:34;;;;;;;29.73;11.13;;;;;;;16.42;81.92;101564.31;4996112;28;20045;-54
2021/07/15 04:04:02;;;;;;;33.50;12.27;;;;;;;16.39;82.14;101562.59;5002462;28;20026;-56
2021/07/15 04:06:28;;;;;;;31.90;12.50;;;;;;;16.39;82.25;101570.56;5005290;28;20031;-55
2021/07/15 04:08:57;;;;;;;30.67;12.43;;;;;;;16.39;81.59;101570.56;4999469;28;20081;-56
2021/07/15 04:11:24;;;;;;;37.95;12.38;;;;;;;16.44;81.61;101565.16;5001900;28;20041;-55
2021/07/15 04:13:51;;;;;;;29.58;12.65;;;;;;;16.42;81.57;101559.00;4990591;28;20154;-55
2021/07/15 04:16:31;;;;;;;38.40;12.80;;;;;;;16.51;81.22;101558.88;5001818;28;20124;-54
2021/07/15 04:18:59;;;;;;;32.95;13.75;;;;;;;16.50;81.27;101562.41;5004739;28;20032;-54
2021/07/15 04:21:25;;;;;;;42.35;12.93;;;;;;;16.52;81.41;101561.50;5006221;28;20034;-56
2021/07/15 04:23:53;;;;;;;36.63;13.30;;;;;;;16.53;81.30;101563.25;5005018;28;20034;-55
2021/07/15 04:26:19;;;;;;;35.70;13.88;;;;;;;16.54;81.11;101569.41;5004662;28;20446;-56
2021/07/15 04:28:46;;;;;;;38.53;13.38;;;;;;;16.55;81.01;101571.19;5000008;28;20037;-56
2021/07/15 04:31:24;;;;;;;35.42;12.80;;;;;;;16.54;81.15;101577.38;4997337;28;20041;-57
2021/07/15 04:33:50;;;;;;;39.90;12.90;;;;;;;16.53;81.13;101583.59;5003649;28;20094;-54
2021/07/15 04:36:16;;;;;;;41.70;13.55;;;;;;;16.49;81.24;101597.81;4995279;28;20119;-55
2021/07/15 04:38:42;;;;;;;45.15;14.27;;;;;;;16.42;81.25;101597.00;4987149;28;20693;-56
2021/07/15 04:41:09;;;;;;;36.30;12.48;;;;;;;16.44;81.30;101595.22;4993837;28;20046;-54
2021/07/15 04:43:35;;;;;;;31.55;12.60;;;;;;;16.39;81.59;101610.34;4986976;28;20042;-55
2021/07/15 04:46:01;;;;;;;34.70;12.45;;;;;;;16.41;81.82;101603.22;4998571;28;20034;-55
2021/07/15 04:48:27;;;;;;;27.08;12.23;;;;;;;16.43;81.74;101590.81;5002211;28;20390;-56
2021/07/15 04:50:55;;;;;;;35.05;12.98;;;;;;;16.43;81.21;101603.22;4996801;28;20034;-54
2021/07/15 04:53:23;;;;;;;24.83;11.35;;;;;;;16.45;81.10;101604.06;5003005;28;20042;-56
2021/07/15 04:55:54;;;;;;;25.42;11.35;;;;;;;16.49;81.00;101608.44;4990138;28;20041;-55
2021/07/15 04:58:23;;;;;;;27.20;10.48;;;;;;;16.50;80.94;101603.09;4990703;28;20047;-53
2021/07/15 05:00:49;;;;;;;29.35;11.90;;;;;;;16.51;80.68;101614.59;5005447;28;20031;-57
2021/07/15 05:03:30;;;;;;;31.85;11.30;;;;;;;16.51;81.01;101609.28;4992399;28;20046;-56
2021/07/15 05:05:56;;;;;;;29.92;10.80;;;;;;;16.51;80.19;101614.59;5000660;28;20085;-54
2021/07/15 05:08:21;;;;;;;27.13;10.75;;;;;;;16.47;80.50;101619.06;4996389;28;20401;-58
2021/07/15 05:10:46;;;;;;;26.30;9.75;;;;;;;16.50;79.86;101612.81;5000399;28;20026;-57
2021/07/15 05:13:12;;;;;;;20.40;10.23;;;;;;;16.48;79.63;101614.63;4993781;28;20382;-57
2021/07/15 05:15:37;;;;;;;21.65;9.25;;;;;;;16.45;79.99;101618.19;4999166;28;20022;-55
2021/07/15 05:18:03;;;;;;;31.23;9.88;;;;;;;16.44;79.86;101612.91;4988829;28;20409;-56
2021/07/15 05:20:28;;;;;;;25.25;10.50;;;;;;;16.46;79.99;101613.75;5000157;28;20521;-56
2021/07/15 05:22:54;;;;;;;32.83;10.98;;;;;;;16.41;80.09;101605.88;4997424;28;20375;-56
2021/07/15 05:25:19;;;;;;;28.27;10.57;;;;;;;16.45;80.12;101612.03;4995630;28;20034;-57
2021/07/15 05:27:44;;;;;;;23.90;10.80;;;;;;;16.43;80.33;101619.13;4990859;28;20065;-55
2021/07/15 05:30:10;;;;;;;30.13;9.88;;;;;;;16.50;80.07;101612.81;4996906;28;20026;-55
2021/07/15 05:32:36;;;;;;;23.23;9.48;;;;;;;16.57;79.80;101606.53;4999243;28;20038;-56
2021/07/15 05:35:01;;;;;;;22.70;9.88;;;;;;;16.63;79.08;101617.03;4985735;28;20026;-57
2021/07/15 05:37:27;;;;;;;20.85;9.15;;;;;;;16.62;79.16;101617.97;4996127;28;20027;-56
2021/07/15 05:39:52;;;;;;;29.90;10.65;;;;;;;16.65;78.74;101611.72;4997036;28;20051;-53
2021/07/15 05:42:18;;;;;;;26.48;10.57;;;;;;;16.65;79.26;101612.59;4995950;28;20042;-54
2021/07/15 05:44:43;;;;;;;21.90;9.77;;;;;;;16.65;79.11;101612.59;4996277;28;20091;-55
2021/07/15 05:47:09;;;;;;;26.33;11.20;;;;;;;16.67;78.77;101609.91;4995818;28;20062;-55
2021/07/15 05:49:35;;;;;;;29.10;9.80;;;;;;;16.69;78.70;101619.63;4997835;28;20054;-55
2021/07/15 05:52:01;;;;;;;26.15;10.48;;;;;;;16.65;78.88;101625.00;4994419;28;20035;-56
2021/07/15 05:54:27;;;;;;;26.48;10.50;;;;;;;16.65;78.98;101636.47;4988081;28;20049;-56
2021/07/15 05:56:52;;;;;;;29.50;10.35;;;;;;;16.58;78.97;101624.22;4997936;28;20588;-55
2021/07/15 05:59:17;;;;;;;23.27;10.18;;;;;;;16.62;78.96;101617.97;4996394;28;20026;-54
2021/07/15 06:01:43;;;;;;;21.35;9.98;;;;;;;16.61;79.09;101629.47;5000797;28;20030;-54
2021/07/15 06:04:08;;;;;;;33.65;10.15;;;;;;;16.66;78.74;101640.03;5017178;28;20034;-52
2021/07/15 06:06:33;;;;;;;22.75;9.75;;;;;;;16.64;79.12;101642.69;4994676;28;20137;-55
2021/07/15 06:08:59;;;;;;;29.65;10.15;;;;;;;16.67;78.41;101637.34;4996716;28;20063;-53
2021/07/15 06:11:24;;;;;;;21.85;9.20;;;;;;;16.62;78.27;101635.66;4996290;28;20038;-55
2021/07/15 06:13:49;;;;;;;33.42;11.48;;;;;;;16.63;78.49;101648.00;4992997;28;20038;-53
2021/07/15 06:16:16;;;;;;;21.83;10.10;;;;;;;16.65;78.64;101649.75;5000593;28;20043;-58
2021/07/15 06:18:41;;;;;;;25.40;10.55;;;;;;;16.68;78.61;101643.53;4999577;28;20034;-56
2021/07/15 06:21:07;;;;;;;29.30;10.73;;;;;;;16.70;78.57;101649.69;4996503;28;20180;-53
2021/07/15 06:23:33;;;;;;;27.05;10.30;;;;;;;16.75;78.38;101656.69;4997208;28;20039;-56
2021/07/15 06:25:59;;;;;;;24.55;10.98;;;;;;;16.74;78.45;101662.00;4994914;28;20027;-54
2021/07/15 06:28:25;;;;;;;26.33;10.90;;;;;;;16.77;77.86;101661.97;4996305;28;20031;-57
2021/07/15 06:30:50;;;;;;;26.83;11.00;;;;;;;16.80;77.79;101658.38;4995402;28;20061;-56
2021/07/15 06:33:16;;;;;;;24.25;10.57;;;;;;;16.85;77.81;101653.94;5008900;28;20589;-56
2021/07/15 06:35:42;;;;;;;26.98;9.73;;;;;;;16.89;77.28;101650.31;4988653;28;20039;-54
2021/07/15 06:38:08;;;;;;;24.05;9.88;;;;;;;16.90;77.84;101652.97;4995831;28;20054;-57
2021/07/15 06:40:34;;;;;;;27.90;11.13;;;;;;;16.94;77.68;101653.81;4997948;28;20056;-56
2021/07/15 06:42:59;;;;;;;17.58;9.75;;;;;;;17.00;77.31;101664.31;4997125;28;20054;-56
2021/07/15 06:45:25;;;;;;;24.10;9.88;;;;;;;17.00;77.21;101672.28;5002863;28;20098;-57
2021/07/15 06:47:51;;;;;;;25.80;9.95;;;;;;;16.98;77.10;101674.09;5003642;28;20037;-56
2021/07/15 06:50:18;;;;;;;23.02;9.48;;;;;;;17.01;76.81;101663.41;5001221;28;20089;-54
2021/07/15 06:52:44;;;;;;;27.33;9.55;;;;;;;17.02;76.55;101659.84;4989519;28;20038;-55
2021/07/15 06:55:11;;;;;;;28.33;9.23;;;;;;;17.06;76.69;101658.91;4990795;28;20138;-55
2021/07/15 06:57:37;;;;;;;24.55;9.25;;;;;;;17.20;76.19;101653.41;4985224;28;20050;-55
2021/07/15 07:00:15;;;;;;;29.15;10.40;;;;;;;17.26;75.78;101660.38;4991114;28;20086;-56
2021/07/15 07:02:41;;;;;;;27.10;9.73;;;;;;;17.28;75.66;101658.56;4992840;28;20026;-56
2021/07/15 07:05:08;;;;;;;25.60;10.30;;;;;;;17.23;75.85;101663.09;5017064;28;20018;-57
2021/07/15 07:07:34;;;;;;;28.73;10.13;;;;;;;17.15;75.78;101671.16;4999131;28;20066;-55
2021/07/15 07:09:59;;;;;;;24.15;10.20;;;;;;;17.13;76.13;101668.53;5001291;28;20027;-54
2021/07/15 07:12:25;;;;;;;17.83;9.07;;;;;;;17.19;75.49;101666.69;4995407;28;20547;-56
2021/07/15 07:14:50;;;;;;;17.77;8.13;;;;;;;17.23;75.74;101663.09;5006234;28;20141;-56
2021/07/15 07:17:15;;;;;;;17.90;8.95;;;;;;;17.29;75.20;101665.63;5002934;28;20053;-56
2021/07/15 07:19:41;;;;;;;20.52;8.52;;;;;;;17.34;75.58;101674.41;5000557;28;20090;-50
2021/07/15 07:22:06;;;;;;;27.27;9.38;;;;;;;17.39;75.36;101675.22;4998148;28;20026;-53
2021/07/15 07:24:32;;;;;;;21.35;8.63;;;;;;;17.51;75.13;101685.63;5005553;28;20375;-54
2021/07/15 07:26:57;;;;;;;23.50;9.20;;;;;;;17.58;74.07;101691.72;4995786;28;20027;-54
2021/07/15 07:29:22;;;;;;;30.90;10.02;;;;;;;17.56;74.13;101687.31;4993684;28;20046;-55
2021/07/15 07:31:48;;;;;;;25.65;9.50;;;;;;;17.53;74.25;101694.44;4994613;28;20039;-55
2021/07/15 07:34:13;;;;;;;23.15;8.70;;;;;;;17.46;73.84;101700.75;4992881;28;20058;-54
2021/07/15 07:36:38;;;;;;;17.33;8.35;;;;;;;17.46;74.44;101699.88;5005390;28;20041;-54
2021/07/15 07:39:04;;;;;;;21.58;9.07;;;;;;;17.51;74.05;101696.25;5005398;28;20829;-53
2021/07/15 07:41:31;;;;;;;22.02;8.73;;;;;;;17.53;74.25;101715.69;4994464;28;20130;-54
2021/07/15 07:43:57;;;;;;;21.95;8.15;;;;;;;17.58;74.51;101706.75;5004097;28;20034;-51
2021/07/15 07:46:22;;;;;;;18.90;8.75;;;;;;;17.61;73.73;101712.91;4998826;28;20466;-55
2021/07/15 07:48:47;;;;;;;20.80;8.95;;;;;;;17.62;73.57;101703.19;5003336;28;20077;-52
2021/07/15 07:51:13;;;;;;;25.48;9.63;;;;;;;17.50;74.09;101720.19;4999100;28;20065;-55
2021/07/15 07:53:38;;;;;;;18.23;8.32;;;;;;;17.52;74.40;101724.59;5002324;28;20035;-52
2021/07/15 07:56:04;;;;;;;16.80;8.65;;;;;;;17.50;74.30;101722.84;4995775;28;20031;-55
2021/07/15 07:58:29;;;;;;;17.80;7.97;;;;;;;17.53;74.43;101723.66;4993333;28;20030;-53
2021/07/15 08:00:54;;;;;;;18.48;8.85;;;;;;;17.60;74.09;101723.56;5000773;28;20046;-52
2021/07/15 08:03:20;;;;;;;18.17;7.63;;;;;;;17.60;74.05;101721.78;4972565;28;20074;-56
2021/07/15 08:05:46;;;;;;;17.98;7.85;;;;;;;17.62;73.22;101725.31;5002070;28;20054;-55
2021/07/15 08:08:12;;;;;;;20.33;8.82;;;;;;;17.59;73.68;101735.09;5003088;28;20061;-55
2021/07/15 08:10:38;;;;;;;18.70;7.28;;;;;;;17.59;73.95;101725.34;5003065;28;20030;-55
2021/07/15 08:13:03;;;;;;;25.00;8.73;;;;;;;17.64;73.97;101730.59;4996694;28;20038;-56
2021/07/15 08:15:29;;;;;;;22.17;9.10;;;;;;;17.62;73.85;101727.97;5005031;28;20044;-54
2021/07/15 08:17:55;;;;;;;19.65;9.00;;;;;;;17.70;74.31;101731.34;4995113;28;20038;-53
2021/07/15 08:20:20;;;;;;;20.75;8.20;;;;;;;17.71;73.72;101722.50;5002314;28;20366;-56
2021/07/15 08:22:46;;;;;;;22.73;8.85;;;;;;;17.81;73.17;101733.84;4997208;28;20769;-55
2021/07/15 08:25:13;;;;;;;22.90;8.45;;;;;;;17.90;73.25;101731.03;4996717;28;20102;-55
2021/07/15 08:27:39;;;;;;;23.33;8.50;;;;;;;17.98;72.59;101727.38;4992595;28;20022;-57
2021/07/15 08:30:07;;;;;;;18.50;8.00;;;;;;;18.12;72.48;101733.28;4994592;28;20043;-54
2021/07/15 08:32:33;;;;;;;25.02;8.00;;;;;;;18.22;72.10;101734.91;5007080;28;20110;-55
2021/07/15 08:34:58;;;;;;;13.70;7.47;;;;;;;18.29;71.03;101746.28;4999893;28;20043;-56
2021/07/15 09:54:03;;;;;;;22.65;9.35;;;;;;;18.16;71.30;101803.28;5089706;28;20408;-58
2021/07/15 09:56:29;;;;;;;21.70;9.88;;;;;;;18.02;71.95;101792.88;5076631;28;20045;-59
2021/07/15 09:58:55;;;;;;;16.30;8.48;;;;;;;18.04;72.75;101799.94;5075267;28;20033;-59
2021/07/15 10:01:22;;;;;;;20.52;9.13;;;;;;;18.05;72.29;101801.69;5072267;28;20041;-59
2021/07/15 10:03:55;;;;;;;17.13;8.30;;;;;;;18.04;72.35;101805.25;5072995;28;20432;-60
2021/07/15 10:06:21;;;;;;;18.40;8.65;;;;;;;18.04;71.63;101812.34;5078383;28;20025;-59
2021/07/15 10:08:52;;;;;;;17.27;9.15;;;;;;;18.02;72.36;101803.53;5073432;28;20025;-61
2021/07/15 10:11:29;;;;;;;18.05;8.85;;;;;;;17.98;71.81;101825.75;5077846;28;20025;-61
2021/07/15 10:14:03;;;;;;;16.50;8.80;;;;;;;18.02;72.09;101811.50;5071692;28;20102;-60
2021/07/15 10:16:41;;;;;;;18.67;8.68;;;;;;;18.04;72.03;101809.69;5077407;28;20037;-60
2021/07/15 10:19:09;;;;;;;22.65;8.65;;;;;;;17.96;72.37;101819.56;5077379;28;20051;-59
2021/07/15 10:21:36;;;;;;;20.60;8.82;;;;;;;17.91;72.83;101815.22;5074745;28;20037;-60
2021/07/15 10:24:25;;;;;;;16.50;8.82;;;;;;;17.82;72.83;101822.44;5075463;28;20557;-60
2021/07/15 10:26:53;;;;;;;19.30;9.02;;;;;;;17.83;72.94;101827.72;5076313;28;20081;-60
2021/07/15 10:29:19;;;;;;;21.17;8.52;;;;;;;17.83;72.45;101834.84;5074689;28;20033;-61
2021/07/15 10:31:46;;;;;;;16.67;8.57;;;;;;;17.78;72.44;101828.69;5077626;28;20066;-60
2021/07/15 10:34:12;;;;;;;22.25;9.23;;;;;;;17.74;73.24;101827.88;5077523;28;20029;-61
2021/07/15 10:36:39;;;;;;;21.48;9.25;;;;;;;17.77;73.43;101829.59;5075315;28;20037;-61
2021/07/15 10:39:10;;;;;;;25.70;9.98;;;;;;;17.78;73.11;101813.63;5076474;28;20032;-59
2021/07/15 10:41:41;;;;;;;19.17;8.43;;;;;;;17.90;72.75;101818.78;5074807;28;20080;-59
2021/07/15 10:44:08;;;;;;;24.98;9.40;;;;;;;17.97;73.05;101822.19;5073521;28;20025;-59
2021/07/15 10:46:34;;;;;;;16.95;8.82;;;;;;;18.10;72.21;101812.25;5076733;28;20510;-60
2021/07/15 10:48:59;;;;;;;22.52;8.95;;;;;;;18.05;72.40;101820.31;5074528;28;20088;-58
2021/07/15 10:51:25;;;;;;;16.25;9.02;;;;;;;18.07;72.79;101822.91;5072491;28;20055;-59
2021/07/15 10:53:52;;;;;;;22.60;8.50;;;;;;;18.09;73.10;101831.75;5066892;28;20063;-59
2021/07/15 10:56:19;;;;;;;14.63;7.70;;;;;;;18.18;71.18;101822.75;5061043;28;20040;-60
2021/07/15 10:58:51;;;;;;;16.48;7.70;;;;;;;18.24;71.35;101827.94;5058447;28;20770;-59
2021/07/15 11:04:15;;;;;;;10.82;7.05;;;;;;;18.35;71.24;101820.66;5060347;28;20090;-59
2021/07/15 11:06:44;;;;;;;16.15;8.10;;;;;;;18.44;70.88;101822.28;5058825;28;20120;-59
2021/07/15 11:09:25;;;;;;;18.05;8.32;;;;;;;18.45;70.68;101827.56;5062980;28;20049;-59
2021/07/15 11:11:51;;;;;;;16.75;7.97;;;;;;;18.48;70.37;101829.28;5055518;28;20084;-59
2021/07/15 11:14:44;;;;;;;16.50;8.00;;;;;;;18.50;70.60;101832.78;5053349;28;20063;-58
2021/07/15 11:17:42;;;;;;;15.82;7.70;;;;;;;18.42;70.83;101830.28;5062099;28;20060;-59
2021/07/15 11:20:26;;;;;;;16.10;7.85;;;;;;;18.35;70.68;101839.28;5073516;28;20129;-59
2021/07/15 11:23:00;;;;;;;21.70;7.45;;;;;;;18.28;71.45;101838.53;5062559;28;20561;-59
2021/07/15 11:25:28;;;;;;;17.75;7.63;;;;;;;18.31;71.32;101832.25;5062643;28;20033;-60
2021/07/15 11:28:10;;;;;;;20.88;7.65;;;;;;;18.40;71.37;101836.53;5061428;28;20044;-60
2021/07/15 11:30:36;;;;;;;15.32;7.82;;;;;;;18.47;70.80;101838.19;5061752;28;20029;-60
2021/07/15 11:33:17;;;;;;;17.20;7.50;;;;;;;18.51;71.00;101854.06;5063295;28;20036;-60
2021/07/15 11:35:51;;;;;;;17.58;7.13;;;;;;;18.59;69.13;101839.72;5060859;28;20044;-61
2021/07/15 11:38:23;;;;;;;17.10;7.45;;;;;;;18.56;69.79;101848.63;5063627;28;20476;-60
2021/07/15 11:40:50;;;;;;;17.02;7.07;;;;;;;18.53;69.83;101848.72;5063875;28;20033;-60
2021/07/15 11:43:21;;;;;;;12.00;7.03;;;;;;;18.59;69.74;101851.25;5063033;28;20033;-60
2021/07/15 11:46:01;;;;;;;13.25;6.63;;;;;;;18.68;69.71;101851.06;5060116;28;20056;-60
2021/07/15 11:48:41;;;;;;;17.83;7.88;;;;;;;18.78;69.01;101851.75;5063609;28;20033;-60
2021/07/15 11:51:38;;;;;;;;;;;;;;;18.85;69.85;101861.41;5062717;28;20100;-60
2021/07/15 11:54:17;;;;;;;15.45;6.68;;;;;;;18.91;69.06;101857.75;5039602;28;19940;-60
2021/07/15 11:56:47;;;;;;;18.83;7.13;;;;;;;18.99;68.55;101853.13;5037477;28;20045;-58
2021/07/15 11:59:31;;;;;;;13.63;6.60;;;;;;;19.01;68.29;101859.31;5037974;28;20159;-59
2021/07/15 12:02:17;;;;;;;13.77;6.50;;;;;;;18.99;67.50;101860.25;5038416;28;20025;-59
2021/07/15 12:05:12;;;;;;;16.70;6.22;;;;;;;18.86;68.49;101880.94;5038836;28;20084;-59
2021/07/15 12:07:46;;;;;;;17.83;6.63;;;;;;;18.82;67.85;101868.59;5037713;28;20052;-60
2021/07/15 12:10:17;;;;;;;18.77;6.03;;;;;;;18.81;67.87;101878.38;5039794;28;20108;-60
2021/07/15 12:12:42;;;;;;;13.27;6.90;;;;;;;18.78;68.27;101885.50;5038284;28;20025;-60
2021/07/15 12:15:14;;;;;;;11.13;6.18;;;;;;;18.77;68.84;101889.06;5038647;28;20041;-60
2021/07/15 12:17:41;;;;;;;11.48;5.95;;;;;;;18.85;68.57;101887.19;5039543;28;20122;-59
2021/07/15 12:20:07;;;;;;;14.00;6.03;;;;;;;18.90;67.49;101882.63;5038969;28;20721;-59
2021/07/15 12:22:48;;;;;;;12.38;6.05;;;;;;;18.90;68.10;101890.59;5036910;28;20049;-61
2021/07/15 12:25:22;;;;;;;16.00;6.88;;;;;;;18.89;67.63;101895.06;5035449;28;20033;-60
2021/07/15 12:27:51;;;;;;;19.05;6.50;;;;;;;18.97;67.56;101891.38;5034195;28;20091;-61
2021/07/15 12:30:18;;;;;;;15.82;6.07;;;;;;;19.05;67.33;101885.00;5054976;28;20048;-60
2021/07/15 12:32:55;;;;;;;15.65;6.38;;;;;;;19.12;66.67;101888.41;5052795;28;20102;-60
2021/07/15 12:35:21;;;;;;;12.77;6.10;;;;;;;19.07;66.18;101896.50;5055214;28;20028;-61
2021/07/15 12:37:46;;;;;;;23.50;5.50;;;;;;;19.15;67.13;101877.69;5062192;28;20036;-59
2021/07/15 12:40:12;;;;;;;12.85;5.50;;;;;;;19.31;66.33;101872.91;5059968;28;20021;-59